Time;durP1;ratioP1;P1;durP2;ratioP2;P2;SDS_P1;SDS_P2;PMS_P1;PMS_P2;Temp;Humidity;BMP_temperature;BMP_pressure;BME280_temperature;BME280_humidity;BME280_pressure;Samples;Min_cycle;Max_cycle;Signal;HPM_P1;HPM_P2
2023/04/05 00:01:06;;;;;;;;;;;19.40;34.40;;;;;;5100827;27;19920;-59
2023/04/05 00:03:33;;;;;;;;;;;19.40;34.40;;;;;;5102610;28;20020;-59
2023/04/05 00:06:01;;;;;;;;;;;19.40;34.40;;;;;;5103235;27;19923;-60
2023/04/05 00:08:30;;;;;;;;;;;19.40;34.40;;;;;;5099334;28;19969;-59
2023/04/05 00:10:57;;;;;;;;;;;19.40;34.40;;;;;;5118505;28;19932;-60
2023/04/05 00:13:24;;;;;;;;;;;19.40;34.40;;;;;;5100856;28;19923;-59
2023/04/05 00:15:51;;;;;;;;;;;19.40;34.40;;;;;;5100082;28;20256;-59
2023/04/05 00:18:22;;;;;;;;;;;19.40;34.40;;;;;;5099743;28;19927;-59
2023/04/05 00:20:49;;;;;;;;;;;19.40;34.50;;;;;;5098746;28;19919;-60
2023/04/05 00:23:16;;;;;;;;;;;19.40;34.40;;;;;;5100890;28;19959;-60
2023/04/05 00:25:44;;;;;;;;;;;19.40;34.40;;;;;;5110451;28;19920;-60
2023/04/05 00:28:11;;;;;;;;;;;19.40;34.40;;;;;;5118471;28;20426;-60
2023/04/05 00:30:38;;;;;;;;;;;19.40;34.40;;;;;;5099720;28;19941;-60
2023/04/05 00:33:05;;;;;;;;;;;19.40;34.40;;;;;;5100341;28;20353;-60
2023/04/05 00:35:31;;;;;;;;;;;19.40;34.40;;;;;;5102262;28;19927;-60
2023/04/05 00:37:58;;;;;;;;;;;19.40;34.40;;;;;;5100780;28;19919;-60
2023/04/05 00:40:25;;;;;;;;;;;19.40;34.40;;;;;;5100109;28;19959;-60
2023/04/05 00:42:55;;;;;;;;;;;19.40;34.40;;;;;;5101956;28;19976;-60
2023/04/05 00:45:22;;;;;;;;;;;19.40;34.40;;;;;;5111223;28;20350;-60
2023/04/05 00:47:49;;;;;;;;;;;19.40;34.40;;;;;;5099124;28;19935;-60
2023/04/05 00:50:16;;;;;;;;;;;19.40;34.40;;;;;;5099800;28;19969;-60
2023/04/05 00:52:43;;;;;;;;;;;19.40;34.40;;;;;;5098180;28;19923;-60
2023/04/05 00:55:09;;;;;;;;;;;19.40;34.40;;;;;;5089248;28;19931;-60
2023/04/05 00:57:37;;;;;;;;;;;19.40;34.40;;;;;;5107753;28;19919;-59
2023/04/05 01:00:10;;;;;;;;;;;19.40;34.40;;;;;;5094505;28;20384;-59
2023/04/05 01:02:44;;;;;;;;;;;19.40;34.40;;;;;;5101509;28;19938;-59
2023/04/05 01:05:14;;;;;;;;;;;19.40;34.40;;;;;;5121990;27;19926;-59
2023/04/05 01:07:42;;;;;;;;;;;19.40;34.40;;;;;;5104221;27;19968;-59
2023/04/05 01:10:10;;;;;;;;;;;19.40;34.40;;;;;;5122723;27;19919;-59
2023/04/05 01:12:37;;;;;;;;;;;19.40;34.40;;;;;;5126801;27;19927;-59
2023/04/05 01:15:04;;;;;;;;;;;19.40;34.30;;;;;;5102640;27;19924;-59
2023/04/05 01:17:35;;;;;;;;;;;19.30;34.30;;;;;;5126337;27;19930;-59
2023/04/05 01:20:09;;;;;;;;;;;19.40;34.30;;;;;;5104490;27;19919;-59
2023/04/05 01:22:40;;;;;;;;;;;19.40;34.40;;;;;;5120873;27;20278;-59
2023/04/05 01:25:18;;;;;;;;;;;19.40;34.30;;;;;;5106783;27;19931;-60
2023/04/05 01:27:51;;;;;;;;;;;19.30;34.20;;;;;;5102149;27;19967;-60
2023/04/05 01:30:19;;;;;;;;;;;19.40;34.30;;;;;;5097686;27;19920;-60
2023/04/05 01:32:47;;;;;;;;;;;19.30;34.20;;;;;;5121592;27;19919;-60
2023/04/05 01:35:16;;;;;;;;;;;19.30;34.20;;;;;;5107155;27;20010;-60
2023/04/05 01:37:43;;;;;;;;;;;19.40;34.30;;;;;;5124291;27;19960;-60
2023/04/05 01:40:10;;;;;;;;;;;19.30;34.20;;;;;;5102474;27;19927;-60
2023/04/05 01:42:37;;;;;;;;;;;19.40;34.30;;;;;;5108773;27;19920;-60
2023/04/05 01:45:04;;;;;;;;;;;19.30;34.20;;;;;;5109823;27;19920;-60
2023/04/05 01:47:32;;;;;;;;;;;19.40;34.30;;;;;;5106395;27;19923;-61
2023/04/05 01:49:59;;;;;;;;;;;19.30;34.20;;;;;;5108068;27;19923;-61
2023/04/05 01:52:26;;;;;;;;;;;19.40;34.30;;;;;;5123584;27;19919;-60
2023/04/05 01:54:53;;;;;;;;;;;19.40;34.30;;;;;;5104989;27;19919;-61
2023/04/05 01:57:19;;;;;;;;;;;19.30;34.20;;;;;;5101559;28;19920;-61
2023/04/05 01:59:46;;;;;;;;;;;19.30;34.20;;;;;;5113034;27;20274;-61
2023/04/05 02:02:13;;;;;;;;;;;19.30;34.20;;;;;;5105542;27;20379;-61
2023/04/05 02:04:42;;;;;;;;;;;19.30;34.20;;;;;;5104189;27;19953;-61
2023/04/05 02:07:09;;;;;;;;;;;19.30;34.10;;;;;;5084838;27;19923;-60
2023/04/05 02:09:36;;;;;;;;;;;19.40;34.20;;;;;;5121717;27;19926;-60
2023/04/05 02:12:03;;;;;;;;;;;19.30;34.10;;;;;;5123219;27;19931;-60
2023/04/05 02:14:30;;;;;;;;;;;19.30;34.10;;;;;;5104264;27;19923;-60
2023/04/05 02:16:57;;;;;;;;;;;19.30;34.10;;;;;;5121254;27;19924;-61
2023/04/05 02:19:24;;;;;;;;;;;19.30;34.10;;;;;;5111167;27;19919;-61
2023/04/05 02:21:53;;;;;;;;;;;19.30;34.10;;;;;;5104083;27;19932;-61
2023/04/05 02:24:20;;;;;;;;;;;19.30;34.10;;;;;;5102261;27;19919;-61
2023/04/05 02:26:47;;;;;;;;;;;19.30;34.10;;;;;;5103355;27;19967;-61
2023/04/05 02:29:14;;;;;;;;;;;19.30;34.10;;;;;;5123262;27;19919;-61
2023/04/05 02:31:40;;;;;;;;;;;19.30;34.10;;;;;;5085635;28;19967;-62
2023/04/05 02:34:08;;;;;;;;;;;19.30;34.10;;;;;;5095585;28;19968;-61
2023/04/05 02:36:35;;;;;;;;;;;19.30;34.10;;;;;;5120743;27;19920;-61
2023/04/05 02:39:04;;;;;;;;;;;19.30;34.10;;;;;;5103457;27;19931;-60
2023/04/05 02:41:31;;;;;;;;;;;19.30;34.10;;;;;;5101653;27;19935;-60
2023/04/05 02:43:58;;;;;;;;;;;19.30;34.10;;;;;;5109940;27;19926;-60
2023/04/05 02:46:25;;;;;;;;;;;19.30;34.10;;;;;;5108945;27;19927;-61
2023/04/05 02:48:52;;;;;;;;;;;19.30;34.10;;;;;;5084003;28;19954;-60
2023/04/05 02:51:19;;;;;;;;;;;19.30;34.10;;;;;;5121765;27;19962;-60
2023/04/05 02:53:47;;;;;;;;;;;19.30;34.10;;;;;;5101374;27;20228;-61
2023/04/05 02:56:15;;;;;;;;;;;19.30;34.10;;;;;;5102134;27;19924;-60
2023/04/05 02:58:42;;;;;;;;;;;19.30;34.10;;;;;;5104076;27;19920;-60
2023/04/05 03:01:08;;;;;;;;;;;19.30;34.10;;;;;;5122084;27;19920;-60
2023/04/05 03:03:36;;;;;;;;;;;19.30;34.10;;;;;;5104169;27;19932;-61
2023/04/05 03:06:08;;;;;;;;;;;19.30;34.10;;;;;;5102014;27;19924;-61
2023/04/05 03:08:36;;;;;;;;;;;19.30;34.10;;;;;;5103869;27;19919;-61
2023/04/05 03:11:02;;;;;;;;;;;19.30;34.10;;;;;;5098701;27;20010;-61
2023/04/05 03:13:31;;;;;;;;;;;19.30;34.10;;;;;;5103456;27;19931;-61
2023/04/05 03:15:57;;;;;;;;;;;19.30;34.10;;;;;;5128272;27;19927;-61
2023/04/05 03:18:25;;;;;;;;;;;19.30;34.10;;;;;;5099843;27;19928;-61
2023/04/05 03:20:56;;;;;;;;;;;19.30;34.10;;;;;;5117361;27;19961;-61
2023/04/05 03:23:25;;;;;;;;;;;19.30;34.00;;;;;;5103540;27;19919;-61
2023/04/05 03:25:56;;;;;;;;;;;19.30;34.00;;;;;;5103773;27;19923;-61
2023/04/05 03:28:23;;;;;;;;;;;19.30;34.00;;;;;;5099334;27;20268;-61
2023/04/05 03:30:51;;;;;;;;;;;19.30;34.10;;;;;;5119364;27;20010;-61
2023/04/05 03:33:18;;;;;;;;;;;19.30;34.00;;;;;;5103320;27;19919;-61
2023/04/05 03:35:45;;;;;;;;;;;19.30;34.00;;;;;;5115518;27;19985;-61
2023/04/05 03:38:12;;;;;;;;;;;19.30;34.00;;;;;;5096420;27;19928;-61
2023/04/05 03:40:39;;;;;;;;;;;19.30;34.00;;;;;;5103591;27;19984;-61
2023/04/05 03:43:05;;;;;;;;;;;19.30;34.10;;;;;;5106794;27;19934;-60
2023/04/05 03:45:33;;;;;;;;;;;19.30;34.00;;;;;;5118392;27;19926;-61
2023/04/05 03:48:01;;;;;;;;;;;19.30;34.10;;;;;;5103348;27;19968;-61
2023/04/05 03:50:28;;;;;;;;;;;19.30;34.10;;;;;;5100499;28;20011;-61
2023/04/05 03:52:55;;;;;;;;;;;19.30;34.10;;;;;;5092642;27;19932;-60
2023/04/05 03:55:22;;;;;;;;;;;19.30;34.10;;;;;;5117673;27;19963;-61
2023/04/05 03:57:48;;;;;;;;;;;19.30;34.10;;;;;;5101229;27;19934;-61
2023/04/05 04:00:16;;;;;;;;;;;19.30;34.00;;;;;;5121315;27;19980;-61
2023/04/05 04:02:43;;;;;;;;;;;19.30;34.00;;;;;;5100910;27;19924;-61
2023/04/05 04:05:15;;;;;;;;;;;19.30;34.00;;;;;;5103912;28;19920;-60
2023/04/05 04:07:41;;;;;;;;;;;19.30;34.00;;;;;;5119475;27;19919;-60
2023/04/05 04:10:08;;;;;;;;;;;19.30;34.00;;;;;;5119214;27;19920;-60
2023/04/05 04:12:35;;;;;;;;;;;19.30;34.00;;;;;;5101131;27;20039;-61
2023/04/05 04:15:02;;;;;;;;;;;19.30;34.00;;;;;;5120429;27;19923;-61
2023/04/05 04:17:29;;;;;;;;;;;19.30;34.00;;;;;;5101228;28;19924;-60
2023/04/05 04:19:56;;;;;;;;;;;19.30;34.00;;;;;;5117381;28;19920;-61
2023/04/05 04:22:25;;;;;;;;;;;19.30;34.00;;;;;;5117050;28;19920;-61
2023/04/05 04:24:52;;;;;;;;;;;19.30;34.00;;;;;;5119380;28;19931;-61
2023/04/05 04:27:19;;;;;;;;;;;19.30;34.00;;;;;;5103564;28;20006;-61
2023/04/05 04:29:46;;;;;;;;;;;19.30;33.90;;;;;;5098497;28;19931;-60
2023/04/05 04:32:14;;;;;;;;;;;19.30;34.00;;;;;;5119381;28;20007;-60
2023/04/05 04:34:43;;;;;;;;;;;19.30;33.90;;;;;;5112425;28;19926;-60
2023/04/05 04:37:16;;;;;;;;;;;19.30;33.90;;;;;;5093424;28;19920;-60
2023/04/05 04:39:46;;;;;;;;;;;19.30;33.90;;;;;;5104607;28;19926;-61
2023/04/05 04:42:13;;;;;;;;;;;19.30;34.00;;;;;;5104476;27;20030;-60
2023/04/05 04:44:41;;;;;;;;;;;19.30;34.00;;;;;;5123312;27;19920;-61
2023/04/05 04:47:12;;;;;;;;;;;19.30;34.00;;;;;;5102721;27;19993;-61
2023/04/05 04:49:40;;;;;;;;;;;19.30;34.10;;;;;;5103982;27;20304;-61
2023/04/05 04:52:07;;;;;;;;;;;19.30;34.00;;;;;;5105603;27;19920;-60
2023/04/05 04:54:34;;;;;;;;;;;19.30;34.10;;;;;;5122842;27;19920;-61
2023/04/05 04:57:02;;;;;;;;;;;19.30;34.10;;;;;;5119751;27;19923;-60
2023/04/05 04:59:29;;;;;;;;;;;19.30;34.20;;;;;;5106331;27;20351;-60
2023/04/05 05:01:56;;;;;;;;;;;19.30;34.10;;;;;;5106623;27;19930;-61
2023/04/05 05:04:23;;;;;;;;;;;19.30;34.70;;;;;;5098055;27;19920;-60
2023/04/05 05:06:50;;;;;;;;;;;19.30;34.20;;;;;;5125125;27;20387;-60
2023/04/05 05:09:17;;;;;;;;;;;19.30;34.20;;;;;;5106345;27;19931;-60
2023/04/05 05:11:43;;;;;;;;;;;19.30;34.20;;;;;;5097242;28;19920;-61
2023/04/05 05:14:12;;;;;;;;;;;19.30;34.20;;;;;;5116113;27;19919;-61
2023/04/05 05:16:38;;;;;;;;;;;19.30;34.10;;;;;;5120585;27;19919;-60
2023/04/05 05:19:05;;;;;;;;;;;19.30;34.10;;;;;;5110469;27;19927;-60
2023/04/05 05:21:32;;;;;;;;;;;19.30;34.10;;;;;;5106083;27;19927;-60
2023/04/05 05:23:58;;;;;;;;;;;19.30;34.10;;;;;;5104989;27;19931;-60
2023/04/05 05:26:26;;;;;;;;;;;19.30;34.10;;;;;;5124113;27;19926;-60
2023/04/05 05:28:52;;;;;;;;;;;19.30;34.00;;;;;;5121165;27;19926;-60
2023/04/05 05:31:20;;;;;;;;;;;19.30;34.00;;;;;;5123060;27;19942;-60
2023/04/05 05:33:49;;;;;;;;;;;19.30;34.00;;;;;;5121128;27;20007;-60
2023/04/05 05:36:18;;;;;;;;;;;19.30;34.00;;;;;;5102073;28;19923;-60
2023/04/05 05:38:45;;;;;;;;;;;19.30;34.00;;;;;;5104495;28;19968;-60
2023/04/05 05:41:12;;;;;;;;;;;19.30;34.00;;;;;;5111661;27;19920;-60
2023/04/05 05:43:38;;;;;;;;;;;19.30;34.00;;;;;;5101662;28;19927;-60
2023/04/05 05:46:05;;;;;;;;;;;19.30;34.60;;;;;;5112366;27;19966;-60
2023/04/05 05:48:33;;;;;;;;;;;19.30;34.00;;;;;;5111177;28;20020;-60
2023/04/05 05:51:08;;;;;;;;;;;19.30;34.00;;;;;;5098565;27;20321;-60
2023/04/05 05:53:35;;;;;;;;;;;19.20;33.90;;;;;;5092987;28;20035;-60
2023/04/05 05:56:02;;;;;;;;;;;19.30;34.00;;;;;;5111122;28;19920;-60
2023/04/05 05:58:28;;;;;;;;;;;19.30;34.00;;;;;;5110357;28;19924;-60
2023/04/05 06:00:56;;;;;;;;;;;19.30;34.00;;;;;;5106991;27;19926;-60
2023/04/05 06:03:23;;;;;;;;;;;19.30;33.90;;;;;;5098862;28;19959;-60
2023/04/05 06:05:54;;;;;;;;;;;19.30;34.00;;;;;;5111813;28;19920;-61
2023/04/05 06:08:20;;;;;;;;;;;19.30;34.00;;;;;;5094824;28;19969;-60
2023/04/05 06:10:48;;;;;;;;;;;19.30;34.00;;;;;;5111820;28;19920;-61
2023/04/05 06:13:14;;;;;;;;;;;19.20;33.90;;;;;;5093523;28;19923;-61
2023/04/05 06:15:42;;;;;;;;;;;19.30;34.00;;;;;;5103968;27;19919;-61
2023/04/05 06:18:08;;;;;;;;;;;19.30;34.00;;;;;;5113256;27;20365;-60
2023/04/05 06:20:39;;;;;;;;;;;19.30;34.00;;;;;;5093197;27;19920;-61
2023/04/05 06:23:07;;;;;;;;;;;19.30;34.00;;;;;;5107145;27;19919;-60
2023/04/05 06:25:34;;;;;;;;;;;19.30;34.00;;;;;;5093941;27;19965;-61
2023/04/05 06:28:02;;;;;;;;;;;19.30;34.60;;;;;;5111152;28;19926;-61
2023/04/05 06:30:28;;;;;;;;;;;19.30;34.10;;;;;;5094511;27;19924;-61
2023/04/05 06:32:55;;;;;;;;;;;19.30;34.10;;;;;;5114512;27;19920;-61
2023/04/05 06:35:22;;;;;;;;;;;19.30;34.10;;;;;;5132418;27;20341;-61
2023/04/05 06:37:49;;;;;;;;;;;19.30;34.20;;;;;;5100290;27;19919;-61
2023/04/05 06:40:17;;;;;;;;;;;19.30;34.20;;;;;;5119619;27;19954;-59
2023/04/05 06:42:44;;;;;;;;;;;19.30;33.70;;;;;;5102635;27;19945;-59
2023/04/05 06:45:11;;;;;;;;;;;19.30;33.10;;;;;;5099699;28;19920;-56
2023/04/05 06:47:39;;;;;;;;;;;19.30;32.70;;;;;;5102808;27;19927;-60
2023/04/05 06:50:07;;;;;;;;;;;19.30;32.50;;;;;;5102869;27;19927;-60
2023/04/05 06:52:33;;;;;;;;;;;19.20;32.20;;;;;;5103250;27;19923;-61
2023/04/05 06:55:00;;;;;;;;;;;19.20;32.10;;;;;;5104331;27;19923;-60
2023/04/05 06:57:29;;;;;;;;;;;19.20;32.00;;;;;;5102779;27;19919;-57
2023/04/05 06:59:55;;;;;;;;;;;19.20;31.90;;;;;;5119091;27;19984;-60
2023/04/05 07:02:22;;;;;;;;;;;19.20;31.80;;;;;;5098964;27;19923;-60
2023/04/05 07:04:49;;;;;;;;;;;19.20;31.70;;;;;;5102723;27;19934;-60
2023/04/05 07:07:16;;;;;;;;;;;19.10;31.60;;;;;;5103281;27;19977;-60
2023/04/05 07:09:43;;;;;;;;;;;19.20;31.60;;;;;;5099770;27;20151;-60
2023/04/05 07:12:10;;;;;;;;;;;19.20;31.50;;;;;;5118019;27;19919;-59
2023/04/05 07:14:38;;;;;;;;;;;19.10;31.40;;;;;;5102668;27;19932;-60
2023/04/05 07:17:05;;;;;;;;;;;19.10;31.20;;;;;;5118271;27;20356;-59
2023/04/05 07:19:32;;;;;;;;;;;19.10;31.20;;;;;;5104126;27;19924;-60
2023/04/05 07:22:00;;;;;;;;;;;19.10;31.10;;;;;;5101156;27;20282;-59
2023/04/05 07:24:26;;;;;;;;;;;19.10;31.10;;;;;;5121033;27;19954;-60
2023/04/05 07:26:53;;;;;;;;;;;19.10;31.00;;;;;;5102562;27;19927;-60
2023/04/05 07:29:20;;;;;;;;;;;19.10;31.00;;;;;;5121906;27;20365;-59
2023/04/05 07:31:48;;;;;;;;;;;19.10;31.00;;;;;;5102957;27;19973;-60
2023/04/05 07:34:15;;;;;;;;;;;19.10;30.90;;;;;;5101063;27;19923;-59
2023/04/05 07:36:41;;;;;;;;;;;19.10;31.00;;;;;;5120630;27;19959;-60
2023/04/05 07:39:08;;;;;;;;;;;19.00;30.90;;;;;;5101592;28;19920;-60
2023/04/05 07:41:35;;;;;;;;;;;19.10;30.90;;;;;;5107076;27;19924;-60
2023/04/05 07:44:04;;;;;;;;;;;19.10;30.90;;;;;;5098539;27;20492;-60
2023/04/05 07:46:31;;;;;;;;;;;19.10;30.80;;;;;;5101762;27;19924;-60
2023/04/05 07:48:59;;;;;;;;;;;19.10;30.80;;;;;;5103628;27;19963;-60
2023/04/05 07:51:26;;;;;;;;;;;19.10;30.70;;;;;;5122319;27;19942;-57
2023/04/05 07:53:53;;;;;;;;;;;19.00;30.70;;;;;;5101033;27;19919;-61
2023/04/05 07:56:19;;;;;;;;;;;19.10;30.90;;;;;;5119097;27;19927;-61
2023/04/05 07:58:46;;;;;;;;;;;19.10;31.30;;;;;;5102596;27;19927;-61
2023/04/05 08:01:13;;;;;;;;;;;19.10;31.60;;;;;;5121549;27;19930;-62
2023/04/05 08:03:40;;;;;;;;;;;19.10;31.80;;;;;;5100571;28;19945;-61
2023/04/05 08:06:11;;;;;;;;;;;19.10;32.00;;;;;;5102282;27;19919;-60
2023/04/05 08:08:38;;;;;;;;;;;19.10;32.10;;;;;;5117931;27;19920;-62
2023/04/05 08:11:05;;;;;;;;;;;19.10;32.20;;;;;;5092238;28;19931;-62
2023/04/05 08:13:32;;;;;;;;;;;19.10;32.40;;;;;;5118312;27;19919;-62
2023/04/05 08:15:59;;;;;;;;;;;19.10;32.50;;;;;;5103071;27;19932;-62
2023/04/05 08:18:26;;;;;;;;;;;19.10;32.60;;;;;;5104637;28;19919;-61
2023/04/05 08:20:53;;;;;;;;;;;19.20;32.80;;;;;;5100962;28;19976;-62
2023/04/05 08:23:21;;;;;;;;;;;19.20;32.90;;;;;;5102706;28;19924;-60
2023/04/05 08:25:48;;;;;;;;;;;19.20;32.90;;;;;;5120203;28;20015;-60
2023/04/05 08:28:15;;;;;;;;;;;19.20;32.90;;;;;;5101681;28;19977;-60
2023/04/05 08:30:42;;;;;;;;;;;19.20;33.00;;;;;;5118064;28;19919;-59
2023/04/05 08:33:08;;;;;;;;;;;19.20;33.10;;;;;;5098337;28;19920;-60
2023/04/05 08:35:36;;;;;;;;;;;19.20;33.10;;;;;;5097992;28;19920;-61
2023/04/05 08:38:03;;;;;;;;;;;19.20;33.20;;;;;;5101052;28;19996;-59
2023/04/05 08:40:33;;;;;;;;;;;19.30;33.30;;;;;;5101117;28;19923;-60
2023/04/05 08:43:03;;;;;;;;;;;19.30;33.40;;;;;;5100713;28;20572;-60
2023/04/05 08:45:30;;;;;;;;;;;19.30;33.40;;;;;;5101019;28;19924;-61
2023/04/05 08:47:57;;;;;;;;;;;19.30;33.40;;;;;;5114134;28;19973;-62
2023/04/05 08:50:24;;;;;;;;;;;19.30;33.50;;;;;;5096988;28;19984;-60
2023/04/05 08:52:51;;;;;;;;;;;19.30;33.50;;;;;;5103235;28;19923;-60
2023/04/05 08:55:18;;;;;;;;;;;19.30;33.50;;;;;;5100288;28;20437;-60
2023/04/05 08:57:47;;;;;;;;;;;19.40;33.70;;;;;;5118819;28;19996;-59
2023/04/05 09:00:14;;;;;;;;;;;19.40;33.80;;;;;;5119232;28;19927;-61
2023/04/05 09:02:41;;;;;;;;;;;19.40;33.80;;;;;;5117964;28;19920;-60
2023/04/05 09:05:09;;;;;;;;;;;19.40;33.80;;;;;;5119897;28;20193;-61
2023/04/05 09:07:36;;;;;;;;;;;19.40;33.80;;;;;;5099139;28;19924;-62
2023/04/05 09:10:02;;;;;;;;;;;19.40;33.80;;;;;;5100622;28;20010;-59
2023/04/05 09:12:29;;;;;;;;;;;19.40;33.90;;;;;;5096305;28;19943;-59
2023/04/05 09:14:58;;;;;;;;;;;19.40;34.00;;;;;;5098351;28;19920;-61
2023/04/05 09:17:26;;;;;;;;;;;19.40;34.00;;;;;;5105783;28;19923;-59
2023/04/05 09:19:52;;;;;;;;;;;19.40;34.00;;;;;;5109059;28;19943;-61
2023/04/05 09:22:19;;;;;;;;;;;19.50;34.10;;;;;;5100374;28;19973;-61
2023/04/05 09:24:46;;;;;;;;;;;19.40;34.10;;;;;;5114816;28;20236;-60
2023/04/05 09:27:13;;;;;;;;;;;19.50;34.20;;;;;;5101464;27;19931;-61
2023/04/05 09:29:40;;;;;;;;;;;19.40;34.10;;;;;;5117553;27;19931;-61
2023/04/05 09:32:09;;;;;;;;;;;19.50;34.20;;;;;;5102457;27;20345;-60
2023/04/05 09:34:36;;;;;;;;;;;19.50;34.20;;;;;;5118417;27;19919;-61
2023/04/05 09:37:03;;;;;;;;;;;19.50;34.30;;;;;;5118403;27;19931;-62
2023/04/05 09:39:31;;;;;;;;;;;19.50;34.30;;;;;;5099877;28;19977;-61
2023/04/05 09:42:05;;;;;;;;;;;19.50;34.30;;;;;;5101808;27;19919;-62
2023/04/05 09:44:46;;;;;;;;;;;19.50;34.30;;;;;;5101970;27;19927;-61
2023/04/05 09:47:17;;;;;;;;;;;19.50;34.40;;;;;;5116850;27;19930;-61
2023/04/05 09:49:43;;;;;;;;;;;19.50;34.40;;;;;;5119663;27;20353;-62
2023/04/05 09:52:17;;;;;;;;;;;19.50;34.40;;;;;;5099055;28;19919;-62
2023/04/05 09:54:44;;;;;;;;;;;19.50;34.40;;;;;;5122062;27;19924;-62
2023/04/05 09:57:11;;;;;;;;;;;19.60;34.50;;;;;;5101966;27;19927;-62
2023/04/05 09:59:39;;;;;;;;;;;19.50;34.50;;;;;;5116689;27;19920;-61
2023/04/05 10:02:05;;;;;;;;;;;19.60;34.60;;;;;;5120944;27;19984;-61
2023/04/05 10:04:40;;;;;;;;;;;19.60;34.60;;;;;;5102001;27;19919;-60
2023/04/05 10:07:06;;;;;;;;;;;19.50;34.50;;;;;;5098751;27;19923;-60
2023/04/05 10:09:36;;;;;;;;;;;19.60;34.60;;;;;;5089971;28;19939;-58
2023/04/05 10:12:03;;;;;;;;;;;19.50;34.30;;;;;;5111095;27;20416;-58
2023/04/05 10:14:30;;;;;;;;;;;19.60;33.30;;;;;;5101312;28;19920;-59
2023/04/05 10:16:59;;;;;;;;;;;19.50;31.80;;;;;;5096091;27;19928;-59
2023/04/05 10:19:27;;;;;;;;;;;19.40;30.40;;;;;;5097640;28;20423;-58
2023/04/05 10:21:55;;;;;;;;;;;19.40;29.60;;;;;;5090808;28;19924;-59
2023/04/05 10:24:25;;;;;;;;;;;19.30;29.00;;;;;;5092492;28;19973;-59
2023/04/05 10:26:55;;;;;;;;;;;19.30;28.60;;;;;;5096593;28;19923;-59
2023/04/05 10:29:25;;;;;;;;;;;19.20;28.00;;;;;;5082829;28;19955;-60
2023/04/05 10:31:53;;;;;;;;;;;19.10;27.90;;;;;;5093139;28;19924;-60
2023/04/05 10:34:23;;;;;;;;;;;19.10;28.10;;;;;;5109874;28;19920;-60
2023/04/05 10:36:50;;;;;;;;;;;19.00;28.40;;;;;;5086945;28;19942;-59
2023/04/05 10:39:20;;;;;;;;;;;19.00;28.70;;;;;;5093936;28;20153;-60
2023/04/05 10:41:47;;;;;;;;;;;19.00;29.00;;;;;;5098293;28;19919;-58
2023/04/05 10:44:14;;;;;;;;;;;19.00;29.20;;;;;;5094611;28;20346;-59
2023/04/05 10:46:41;;;;;;;;;;;19.00;29.50;;;;;;5092704;28;20002;-57
2023/04/05 10:49:08;;;;;;;;;;;19.00;29.60;;;;;;5110269;28;19920;-58
2023/04/05 10:51:35;;;;;;;;;;;19.00;29.70;;;;;;5092675;28;19924;-58
2023/04/05 10:54:02;;;;;;;;;;;19.00;29.80;;;;;;5104748;28;19973;-59
2023/04/05 10:56:31;;;;;;;;;;;19.00;29.90;;;;;;5092743;28;19924;-59
2023/04/05 10:58:57;;;;;;;;;;;19.00;30.00;;;;;;5111721;27;20337;-58
2023/04/05 11:01:24;;;;;;;;;;;19.00;30.00;;;;;;5092378;28;19946;-59
2023/04/05 11:03:53;;;;;;;;;;;19.00;30.00;;;;;;5100483;27;19919;-60
2023/04/05 11:06:21;;;;;;;;;;;19.00;30.00;;;;;;5099297;27;19919;-59
2023/04/05 11:08:48;;;;;;;;;;;19.00;30.10;;;;;;5119054;27;19931;-59
2023/04/05 11:11:15;;;;;;;;;;;19.10;30.20;;;;;;5112538;27;19919;-60
2023/04/05 11:13:50;;;;;;;;;;;19.10;30.20;;;;;;5100502;27;19927;-59
2023/04/05 11:16:17;;;;;;;;;;;19.10;30.30;;;;;;5098787;27;19919;-60
2023/04/05 11:18:44;;;;;;;;;;;19.10;30.30;;;;;;5116960;27;19920;-60
2023/04/05 11:21:11;;;;;;;;;;;19.10;30.40;;;;;;5100794;27;19923;-59
2023/04/05 11:23:59;;;;;;;;;;;19.10;30.40;;;;;;5118592;27;19939;-60
2023/04/05 11:26:29;;;;;;;;;;;19.10;30.40;;;;;;5119028;27;19923;-56
2023/04/05 11:28:58;;;;;;;;;;;19.10;30.50;;;;;;5116985;27;19920;-59
2023/04/05 11:31:25;;;;;;;;;;;19.10;30.40;;;;;;5097375;27;19968;-60
2023/04/05 11:33:58;;;;;;;;;;;19.10;30.40;;;;;;5104352;27;19933;-58
2023/04/05 11:36:32;;;;;;;;;;;19.10;30.50;;;;;;5101043;27;19920;-58
2023/04/05 11:39:14;;;;;;;;;;;19.10;30.50;;;;;;5101340;27;19924;-58
2023/04/05 11:41:41;;;;;;;;;;;19.10;30.50;;;;;;5094370;27;20242;-59
2023/04/05 11:44:10;;;;;;;;;;;19.10;30.50;;;;;;5114669;27;19984;-59
2023/04/05 11:46:37;;;;;;;;;;;19.10;30.40;;;;;;5097003;28;19920;-60
2023/04/05 11:49:04;;;;;;;;;;;19.10;30.30;;;;;;5100928;27;19927;-59
2023/04/05 11:51:30;;;;;;;;;;;19.10;30.30;;;;;;5117643;27;19919;-60
2023/04/05 11:53:57;;;;;;;;;;;19.10;30.30;;;;;;5102518;27;19919;-60
2023/04/05 11:56:24;;;;;;;;;;;19.10;30.40;;;;;;5098657;28;19924;-60
2023/04/05 11:58:51;;;;;;;;;;;19.10;30.40;;;;;;5099939;28;19919;-59
2023/04/05 12:01:19;;;;;;;;;;;19.10;30.40;;;;;;5104414;28;19977;-57
2023/04/05 12:03:46;;;;;;;;;;;19.10;30.50;;;;;;5106008;27;19923;-60
2023/04/05 12:06:12;;;;;;;;;;;19.10;30.50;;;;;;5118528;28;19927;-60
2023/04/05 12:08:40;;;;;;;;;;;19.10;30.50;;;;;;5100970;28;19923;-56
2023/04/05 12:11:07;;;;;;;;;;;19.10;30.60;;;;;;5096235;28;20001;-61
2023/04/05 12:13:35;;;;;;;;;;;19.10;30.50;;;;;;5123434;27;19920;-58
2023/04/05 12:16:02;;;;;;;;;;;19.10;30.60;;;;;;5103736;28;19978;-57
2023/04/05 12:18:31;;;;;;;;;;;19.10;30.50;;;;;;5101615;28;20361;-58
2023/04/05 12:21:00;;;;;;;;;;;19.10;30.50;;;;;;5104245;28;20331;-60
2023/04/05 12:23:27;;;;;;;;;;;19.10;30.50;;;;;;5098015;28;19969;-61
2023/04/05 12:25:55;;;;;;;;;;;19.10;30.60;;;;;;5095813;28;19920;-61
2023/04/05 12:28:21;;;;;;;;;;;19.10;30.60;;;;;;5118787;28;19920;-60
2023/04/05 12:30:48;;;;;;;;;;;19.10;30.60;;;;;;5121653;28;19920;-60
2023/04/05 12:33:15;;;;;;;;;;;19.10;30.60;;;;;;5101677;28;19935;-58
2023/04/05 12:35:44;;;;;;;;;;;19.10;30.60;;;;;;5116768;28;19928;-59
2023/04/05 12:38:16;;;;;;;;;;;19.10;30.70;;;;;;5102638;28;19954;-59
2023/04/05 12:40:43;;;;;;;;;;;19.10;30.70;;;;;;5120232;28;20035;-59
2023/04/05 12:43:10;;;;;;;;;;;19.10;30.70;;;;;;5122599;28;19927;-59
2023/04/05 12:45:40;;;;;;;;;;;19.10;30.70;;;;;;5099045;28;19935;-59
2023/04/05 12:48:07;;;;;;;;;;;19.10;30.70;;;;;;5118273;28;19926;-58
2023/04/05 12:50:34;;;;;;;;;;;19.10;30.70;;;;;;5097460;28;19927;-59
2023/04/05 12:53:06;;;;;;;;;;;19.10;30.70;;;;;;5097369;28;19920;-60
2023/04/05 12:55:33;;;;;;;;;;;19.10;30.80;;;;;;5100452;28;19927;-60
2023/04/05 12:58:00;;;;;;;;;;;19.10;30.80;;;;;;5098039;28;19932;-61
2023/04/05 13:00:27;;;;;;;;;;;19.10;30.80;;;;;;5113952;28;19963;-60
2023/04/05 13:02:54;;;;;;;;;;;19.10;30.70;;;;;;5102655;27;19988;-60
2023/04/05 13:05:22;;;;;;;;;;;19.20;30.60;;;;;;5101029;27;19977;-60
2023/04/05 13:07:49;;;;;;;;;;;19.10;30.40;;;;;;5099482;28;19919;-60
2023/04/05 13:10:17;;;;;;;;;;;19.20;30.30;;;;;;5102424;27;19927;-59
2023/04/05 13:12:44;;;;;;;;;;;19.10;30.00;;;;;;5107713;27;19988;-60
2023/04/05 13:15:11;;;;;;;;;;;19.10;29.90;;;;;;5096980;28;19930;-61
2023/04/05 13:17:38;;;;;;;;;;;19.10;29.80;;;;;;5112473;28;19919;-62
2023/04/05 13:20:05;;;;;;;;;;;19.10;29.80;;;;;;5098026;28;19928;-59
2023/04/05 13:22:32;;;;;;;;;;;19.10;29.70;;;;;;5094434;28;19924;-59
2023/04/05 13:24:58;;;;;;;;;;;19.10;29.80;;;;;;5095465;28;19923;-58
2023/04/05 13:27:27;;;;;;;;;;;19.10;29.90;;;;;;5094141;28;19974;-59
2023/04/05 13:29:53;;;;;;;;;;;19.10;30.00;;;;;;5097456;28;20028;-60
2023/04/05 13:32:20;;;;;;;;;;;19.10;30.00;;;;;;5112643;28;19924;-59
2023/04/05 13:34:47;;;;;;;;;;;19.10;30.10;;;;;;5112284;27;20365;-60
2023/04/05 13:37:14;;;;;;;;;;;19.10;30.20;;;;;;5112820;28;19949;-58
2023/04/05 13:39:41;;;;;;;;;;;19.10;30.30;;;;;;5093946;28;19931;-59
2023/04/05 13:42:07;;;;;;;;;;;19.10;30.90;;;;;;5112746;28;19924;-59
2023/04/05 13:44:37;;;;;;;;;;;19.10;30.30;;;;;;5112179;27;19920;-59
2023/04/05 13:47:03;;;;;;;;;;;19.10;30.30;;;;;;5094523;28;19961;-59
2023/04/05 13:49:30;;;;;;;;;;;19.10;30.30;;;;;;5111733;28;19930;-58
2023/04/05 13:51:57;;;;;;;;;;;19.10;30.40;;;;;;5094502;28;19932;-58
2023/04/05 13:54:24;;;;;;;;;;;19.10;30.40;;;;;;5115010;27;19923;-59
2023/04/05 13:56:50;;;;;;;;;;;19.10;30.40;;;;;;5094724;28;19927;-57
2023/04/05 13:59:18;;;;;;;;;;;19.10;30.50;;;;;;5097980;28;19924;-60
2023/04/05 14:01:46;;;;;;;;;;;19.10;30.60;;;;;;5093743;28;19923;-57
2023/04/05 14:04:13;;;;;;;;;;;19.10;30.60;;;;;;5096283;28;19920;-58
2023/04/05 14:06:40;;;;;;;;;;;19.10;30.60;;;;;;5112869;28;20040;-59
2023/04/05 14:09:07;;;;;;;;;;;19.10;30.50;;;;;;5095911;28;20014;-59
2023/04/05 14:11:34;;;;;;;;;;;19.10;30.60;;;;;;5111841;28;19919;-58
2023/04/05 14:14:01;;;;;;;;;;;19.10;30.60;;;;;;5093715;28;19965;-58
2023/04/05 14:16:28;;;;;;;;;;;19.10;30.70;;;;;;5094192;28;19924;-60
2023/04/05 14:18:56;;;;;;;;;;;19.10;30.60;;;;;;5094150;28;19946;-60